Data for 12/25/2015

Time Sea-Level Adjusted Pressure Absolute Pressure Temperature Relative Humidity Dew Point   
(mb) (inHg) (mb) (inHg) (C) (F) (%) (C) (F)
00:05 1008 29.77 837 24.72 -6 21.2 65 -11.7 11
00:10 1008 29.77 837 24.72 -6 21.1 65 -11.7 11
00:15 1008 29.77 837 24.72 -5.9 21.4 64 -11.6 11
00:20 1008 29.77 837 24.72 -5.9 21.4 64 -11.6 11.1
00:25 1008 29.77 837 24.72 -5.9 21.3 64 -11.7 10.9
00:30 1008 29.77 837 24.72 -6 21.3 65 -11.5 11.2
00:35 1008 29.77 837 24.72 -6 21.2 65 -11.6 11.2
00:40 1008 29.77 837 24.72 -6.2 20.9 66 -11.6 11.2
00:45 1008 29.77 837 24.72 -6.2 20.8 62 -12.4 9.8
00:50 1008 29.77 837 24.72 -6.1 20.9 61 -12.5 9.5
00:55 1008 29.77 837 24.72 -6.2 20.9 63 -12.1 10.2
01:00 1008 29.77 837 24.72 -6.4 20.5 63 -12.4 9.7
01:05 1008 29.77 837 24.72 -6.5 20.2 62 -12.8 9
01:10 1008 29.77 837 24.72 -6.6 20.2 63 -12.4 9.6
01:15 1008 29.77 837 24.72 -6.9 19.6 66 -12.2 10.1
01:20 1008 29.77 837 24.72 -7.4 18.6 68 -12.3 9.8
01:25 1008 29.77 837 24.72 -7.7 18.1 69 -12.5 9.5
01:30 1008 29.77 837 24.72 -7.6 18.3 67 -12.7 9.2
01:35 1008 29.77 837 24.72 -7.6 18.2 67 -12.7 9.2
01:40 1008 29.77 837 24.72 -7.8 18 69 -12.6 9.4
01:45 1008 29.77 837 24.72 -8 17.6 70 -12.5 9.5
01:50 1008 29.77 837 24.72 -8.2 17.3 70 -12.7 9.2
01:55 1008 29.77 837 24.72 -8.3 17.2 70 -12.8 9
02:00 1008 29.77 837 24.72 -8.1 17.5 70 -12.7 9.2
02:05 1008 29.77 837 24.72 -8.2 17.3 71 -12.6 9.3
02:10 1008 29.77 837 24.72 -8.7 16.4 72 -12.8 8.9
02:15 1008 29.77 837 24.72 -8.8 16.2 71 -13.1 8.4
02:20 1008 29.77 837 24.72 -9.1 15.7 73 -13.1 8.4
02:25 1008 29.77 837 24.72 -9.1 15.6 72 -13.3 8
02:30 1008 29.77 837 24.72 -9.3 15.3 73 -13.3 8.1
02:35 1008 29.77 837 24.72 -9.5 15 73 -13.4 7.8
02:40 1008 29.77 837 24.72 -9.6 14.7 73 -13.5 7.6
02:45 1008 29.77 837 24.72 -9.7 14.6 74 -13.6 7.6
02:50 1008 29.77 837 24.72 -9.6 14.6 73 -13.6 7.5
02:55 1008 29.77 837 24.72 -9.9 14.2 74 -13.7 7.4
03:00 1008 29.77 837 24.72 -10.2 13.6 75 -13.9 6.9
03:05 1008 29.77 838 24.75 -10.3 13.5 75 -13.9 7
03:10 1008 29.77 838 24.75 -10.2 13.6 76 -13.7 7.4
03:15 1008 29.77 838 24.75 -10.1 13.9 77 -13.4 7.9
03:20 1008 29.77 838 24.75 -9.8 14.4 74 -13.6 7.5
03:25 1009 29.8 838 24.75 -9.7 14.5 73 -13.7 7.3
03:30 1009 29.8 838 24.75 -9.8 14.3 73 -13.7 7.3
03:35 1009 29.8 838 24.75 -9.6 14.7 80 -12.5 9.5
03:40 1009 29.8 838 24.75 -9.1 15.6 74 -12.9 8.8
03:45 1009 29.8 838 24.75 -9.3 15.2 74 -13.1 8.5
03:50 1009 29.8 838 24.75 -9.4 15 74 -13.3 8.1
03:55 1009 29.8 838 24.75 -9.4 15 74 -13.2 8.2
04:00 1009 29.8 838 24.75 -9.5 14.9 75 -13.1 8.5
04:05 1009 29.8 838 24.75 -9.5 15 75 -13.2 8.3
04:10 1009 29.8 838 24.75 -9.4 15.1 74 -13.2 8.2
04:15 1009 29.8 838 24.75 -9.3 15.2 75 -13 8.7
04:20 1009 29.8 838 24.75 -9.1 15.6 73 -13.2 8.3
04:25 1009 29.8 838 24.75 -9 15.8 73 -13.1 8.5
04:30 1009 29.8 838 24.75 -9.1 15.6 75 -12.8 9
04:35 1009 29.8 838 24.75 -9.2 15.5 76 -12.7 9.1
04:40 1009 29.8 838 24.75 -9 15.7 77 -12.3 9.8
04:45 1009 29.8 838 24.75 -9 15.9 78 -12.1 10.2
04:50 1009 29.8 838 24.75 -8.8 16.2 78 -12 10.4
04:55 1009 29.8 838 24.75 -8.7 16.4 78 -11.9 10.5
05:00 1009 29.8 838 24.75 -8.8 16.2 80 -11.6 11.1
05:05 1009 29.8 838 24.75 -8.6 16.5 80 -11.4 11.5
05:10 1009 29.8 838 24.75 -8.6 16.5 81 -11.4 11.5
05:15 1009 29.8 838 24.75 -8.6 16.5 81 -11.3 11.7
05:20 1009 29.8 838 24.75 -8.7 16.4 82 -11.3 11.7
05:25 1009 29.8 838 24.75 -8.7 16.3 83 -11.2 11.8
05:30 1009 29.8 838 24.75 -8.7 16.3 83 -11.1 12.1
05:35 1009 29.8 839 24.78 -8.7 16.4 84 -10.9 12.4
05:40 1009 29.8 839 24.78 -8.6 16.6 85 -10.6 12.8
05:45 1009 29.8 839 24.78 -8.4 16.9 84 -10.6 13
05:50 1009 29.8 839 24.78 -8.4 17 84 -10.6 12.8
05:55 1009 29.8 839 24.78 -8.5 16.7 85 -10.6 12.9
06:00 1010 29.83 839 24.78 -8.5 16.7 85 -10.6 12.8
06:05 1010 29.83 839 24.78 -8.6 16.5 86 -10.6 13
06:10 1010 29.83 839 24.78 -8.7 16.4 87 -10.5 13.1
06:15 1010 29.83 839 24.78 -8.6 16.6 87 -10.4 13.4
06:20 1010 29.83 839 24.78 -8.5 16.7 87 -10.2 13.6
06:25 1010 29.83 839 24.78 -8.4 16.9 88 -10.1 13.8
06:30 1010 29.83 839 24.78 -8.3 17 88 -10 14
06:35 1010 29.83 839 24.78 -8.3 17.1 87 -10 14
06:40 1010 29.83 839 24.78 -8.3 17.1 88 -9.9 14.1
06:45 1010 29.83 839 24.78 -8.2 17.3 88 -9.8 14.3
06:50 1010 29.83 839 24.78 -8.1 17.4 88 -9.8 14.4
06:55 1010 29.83 840 24.81 -8.1 17.4 88 -9.8 14.4
07:00 1010 29.83 840 24.81 -8.1 17.4 88 -9.8 14.4
07:05 1011 29.85 840 24.81 -8.1 17.5 88 -9.7 14.5
07:10 1011 29.85 840 24.81 -8.1 17.5 87 -9.8 14.3
07:15 1011 29.85 840 24.81 -8.2 17.3 86 -10 13.9
07:20 1011 29.85 840 24.81 -8.2 17.2 86 -10.1 13.9
07:25 1011 29.85 840 24.81 -8.2 17.2 87 -10 13.9
07:30 1011 29.85 840 24.81 -8.2 17.2 87 -10 14
07:35 1011 29.85 840 24.81 -8.4 16.9 87 -10.2 13.6
07:40 1011 29.85 840 24.81 -8.5 16.6 86 -10.5 13.1
07:45 1011 29.85 840 24.81 -8.7 16.4 86 -10.5 13.1
07:50 1011 29.85 840 24.81 -8.7 16.4 87 -10.5 13.1
07:55 1011 29.85 841 24.83 -8.7 16.3 87 -10.6 13
08:00 1011 29.85 841 24.83 -8.8 16.1 87 -10.7 12.8
08:05 1012 29.88 841 24.83 -9 15.9 86 -10.8 12.5
08:10 1012 29.88 841 24.83 -9 15.8 86 -10.9 12.3
08:15 1012 29.88 841 24.83 -9.1 15.6 86 -11.1 12.1
08:20 1012 29.88 841 24.83 -9.2 15.4 86 -11.2 11.9
08:25 1012 29.88 841 24.83 -9.3 15.2 86 -11.3 11.6
08:30 1012 29.88 841 24.83 -9.4 15.1 86 -11.3 11.7
08:35 1012 29.88 841 24.83 -9.5 15 86 -11.4 11.4
08:40 1012 29.88 841 24.83 -9.6 14.8 86 -11.5 11.2
08:45 1012 29.88 841 24.83 -9.6 14.8 86 -11.5 11.3
08:50 1012 29.88 841 24.83 -9.6 14.8 85 -11.6 11
08:55 1012 29.88 841 24.83 -9.6 14.8 86 -11.5 11.2
09:00 1012 29.88 842 24.86 -9.6 14.8 86 -11.5 11.2
09:05 1012 29.88 842 24.86 -9.5 14.8 86 -11.5 11.3
09:10 1013 29.91 842 24.86 -9.6 14.8 85 -11.6 11.2
09:15 1013 29.91 842 24.86 -9.5 14.9 86 -11.5 11.3
09:20 1013 29.91 842 24.86 -9.5 14.9 86 -11.5 11.3
09:25 1013 29.91 842 24.86 -9.5 14.8 86 -11.5 11.3
09:30 1013 29.91 842 24.86 -9.5 14.9 86 -11.5 11.4
09:35 1013 29.91 842 24.86 -9.5 15 85 -11.6 11.1
09:40 1013 29.91 842 24.86 -9.5 14.9 84 -11.8 10.8
09:45 1013 29.91 842 24.86 -9.7 14.6 83 -12 10.4
09:50 1013 29.91 842 24.86 -9.8 14.4 84 -12.1 10.3
09:55 1013 29.91 843 24.89 -9.8 14.4 84 -12 10.4
10:00 1013 29.91 843 24.89 -9.9 14.2 83 -12.2 10
10:05 1014 29.94 843 24.89 -10 14.1 84 -12.2 10.1
10:10 1014 29.94 843 24.89 -9.9 14.1 84 -12.2 10.1
10:15 1014 29.94 843 24.89 -10 14.1 84 -12.2 10
10:20 1014 29.94 843 24.89 -9.9 14.1 83 -12.2 10
10:25 1014 29.94 843 24.89 -9.9 14.1 83 -12.2 10
10:30 1014 29.94 843 24.89 -10 14.1 84 -12.2 10
10:35 1014 29.94 843 24.89 -9.9 14.1 83 -12.2 10
10:40 1014 29.94 843 24.89 -9.9 14.1 83 -12.2 10
10:45 1014 29.94 844 24.92 -9.9 14.1 83 -12.4 9.7
10:50 1014 29.94 844 24.92 -10 14.1 83 -12.3 9.8
10:55 1015 29.97 844 24.92 -9.9 14.2 82 -12.4 9.7
11:00 1015 29.97 844 24.92 -9.9 14.2 83 -12.3 9.8
11:05 1015 29.97 844 24.92 -9.8 14.4 82 -12.3 9.9
11:10 1015 29.97 844 24.92 -9.6 14.6 82 -12.2 10
11:15 1015 29.97 844 24.92 -9.5 14.9 80 -12.3 9.8
11:20 1015 29.97 844 24.92 -9.5 14.9 80 -12.4 9.7
11:25 1015 29.97 844 24.92 -9.5 14.8 80 -12.4 9.6
11:30 1015 29.97 844 24.92 -9.7 14.6 80 -12.5 9.5
11:35 1015 29.97 844 24.92 -9.6 14.8 80 -12.4 9.6
11:40 1015 29.97 844 24.92 -9.4 15.2 79 -12.3 9.8
11:45 1015 29.97 844 24.92 -9.4 15.1 78 -12.5 9.5
11:50 1015 29.97 844 24.92 -9.9 14.2 81 -12.6 9.3
11:55 1015 29.97 845 24.95 -9.8 14.4 80 -12.7 9.2
12:00 1015 29.97 844 24.92 -10 13.9 81 -12.7 9.1
12:05 1015 29.97 844 24.92 -9.7 14.6 79 -12.7 9.1
12:10 1015 29.97 845 24.95 -9.3 15.2 77 -12.7 9.1
12:15 1015 29.97 844 24.92 -9.4 15.2 77 -12.7 9.2
12:20 1015 29.97 844 24.92 -9.3 15.2 77 -12.7 9.2
12:25 1015 29.97 844 24.92 -9.2 15.4 76 -12.7 9.2
12:30 1015 29.97 844 24.92 -9.6 14.7 77 -12.9 8.9
12:35 1015 29.97 844 24.92 -9.8 14.4 78 -12.9 8.7
12:40 1015 29.97 844 24.92 -9.9 14.2 78 -12.9 8.7
12:45 1015 29.97 845 24.95 -9.9 14.2 78 -12.9 8.7
12:50 1015 29.97 845 24.95 -10 14.1 79 -13 8.6
12:55 1015 29.97 845 24.95 -9.9 14.3 78 -13 8.6
13:00 1015 29.97 845 24.95 -9.8 14.4 78 -12.8 8.9
13:05 1015 29.97 845 24.95 -9.5 14.9 77 -12.8 8.9
13:10 1015 29.97 845 24.95 -9.7 14.6 78 -12.8 8.9
13:15 1015 29.97 845 24.95 -9.3 15.3 75 -12.9 8.8
13:20 1015 29.97 845 24.95 -9.3 15.3 75 -12.9 8.9
13:25 1016 30 845 24.95 -9 15.8 76 -12.6 9.4
13:30 1016 30 845 24.95 -8.8 16.1 73 -12.8 9
13:35 1016 30 845 24.95 -9.2 15.5 75 -12.9 8.8
13:40 1016 30 845 24.95 -9.1 15.6 74 -12.9 8.8
13:45 1016 30 845 24.95 -8.9 15.9 74 -12.7 9.1
13:50 1016 30 845 24.95 -8.8 16.1 75 -12.4 9.6
13:55 1016 30 845 24.95 -8.7 16.3 74 -12.6 9.3
14:00 1016 30 845 24.95 -8.9 16.1 76 -12.3 9.8
14:05 1016 30 845 24.95 -8.7 16.3 75 -12.4 9.7
14:10 1016 30 845 24.95 -8.7 16.3 75 -12.4 9.7
14:15 1016 30 845 24.95 -8.8 16.1 75 -12.4 9.6
14:20 1016 30 845 24.95 -8.8 16.3 76 -12.3 9.9
14:25 1016 30 845 24.95 -8.6 16.6 75 -12.2 10
14:30 1016 30 845 24.95 -8.5 16.6 73 -12.5 9.4
14:35 1016 30 845 24.95 -9.1 15.6 77 -12.5 9.6
14:40 1016 30 845 24.95 -9.6 14.8 78 -12.7 9.1
14:45 1016 30 845 24.95 -9.8 14.4 80 -12.6 9.3
14:50 1016 30 845 24.95 -9.6 14.8 79 -12.5 9.5
14:55 1016 30 845 24.95 -9.6 14.7 80 -12.5 9.5
15:00 1016 30 845 24.95 -9.8 14.3 79 -12.8 9
15:05 1016 30 845 24.95 -9.9 14.3 81 -12.6 9.4
15:10 1016 30 846 24.98 -9.8 14.3 82 -12.4 9.8
15:15 1016 30 846 24.98 -9.5 14.8 80 -12.3 9.8
15:20 1016 30 846 24.98 -9.2 15.4 79 -12.2 10.1
15:25 1017 30.03 846 24.98 -9.1 15.6 79 -12.1 10.3
15:30 1017 30.03 846 24.98 -8.8 16.1 78 -12.1 10.3
15:35 1017 30.03 846 24.98 -8.6 16.4 76 -12.2 10.1
15:40 1017 30.03 846 24.98 -8.6 16.5 74 -12.4 9.7
15:45 1017 30.03 846 24.98 -8.8 16.2 76 -12.3 9.8
15:50 1017 30.03 846 24.98 -8.7 16.3 76 -12.3 9.8
15:55 1017 30.03 846 24.98 -8.8 16.1 77 -12.2 10.1
16:00 1017 30.03 846 24.98 -8.9 16 77 -12.3 9.9
16:05 1017 30.03 846 24.98 -9 15.9 77 -12.4 9.8
16:10 1017 30.03 846 24.98 -9.2 15.4 79 -12.3 9.9
16:15 1017 30.03 847 25.01 -9.3 15.3 77 -12.7 9.2
16:20 1017 30.03 847 25.01 -9.6 14.8 79 -12.6 9.3
16:25 1018 30.06 847 25.01 -9.4 15 78 -12.6 9.3
16:30 1018 30.06 847 25.01 -9.3 15.2 79 -12.4 9.7
16:35 1018 30.06 847 25.01 -9.2 15.5 77 -12.4 9.6
16:40 1018 30.06 847 25.01 -9.2 15.5 77 -12.4 9.7
16:45 1018 30.06 847 25.01 -9.4 15.2 78 -12.6 9.3
16:50 1018 30.06 847 25.01 -9.3 15.2 78 -12.5 9.5
16:55 1018 30.06 847 25.01 -9.5 15 78 -12.7 9.2
17:00 1018 30.06 847 25.01 -9.6 14.7 80 -12.5 9.5
17:05 1018 30.06 847 25.01 -9.5 14.9 80 -12.4 9.6
17:10 1018 30.06 847 25.01 -9.6 14.7 81 -12.3 9.9
17:15 1018 30.06 848 25.04 -9.5 14.9 81 -12.2 10.1
17:20 1018 30.06 848 25.04 -9.5 14.9 82 -12.1 10.2
17:25 1019 30.09 848 25.04 -9.5 15 81 -12.1 10.2
17:30 1019 30.09 848 25.04 -9.6 14.7 81 -12.3 9.9
17:35 1019 30.09 848 25.04 -9.9 14.1 83 -12.3 9.9
17:40 1019 30.09 848 25.04 -10.1 13.8 84 -12.4 9.8
17:45 1019 30.09 848 25.04 -10.2 13.6 85 -12.3 9.9
17:50 1019 30.09 848 25.04 -10.1 13.9 84 -12.3 9.9
17:55 1019 30.09 848 25.04 -10.2 13.7 85 -12.3 9.9
18:00 1019 30.09 848 25.04 -10.2 13.6 86 -12.2 10.1
18:05 1019 30.09 848 25.04 -10.2 13.7 84 -12.4 9.8
18:10 1019 30.09 848 25.04 -10.5 13.1 86 -12.4 9.7
18:15 1019 30.09 848 25.04 -10.4 13.4 85 -12.4 9.7
18:20 1019 30.09 849 25.07 -10.5 13.2 85 -12.5 9.6
18:25 1019 30.09 849 25.07 -10.6 12.9 86 -12.6 9.3
18:30 1020 30.12 849 25.07 -10.7 12.7 86 -12.6 9.3
18:35 1020 30.12 849 25.07 -10.8 12.6 86 -12.6 9.3
18:40 1020 30.12 849 25.07 -10.9 12.5 86 -12.7 9.1
18:45 1020 30.12 849 25.07 -11 12.3 87 -12.8 9
18:50 1020 30.12 849 25.07 -11 12.2 87 -12.8 9
18:55 1020 30.12 849 25.07 -11 12.1 87 -12.7 9.1
19:00 1020 30.12 849 25.07 -11.1 12.1 88 -12.7 9.2
19:05 1020 30.12 849 25.07 -11 12.2 88 -12.6 9.3
19:10 1020 30.12 849 25.07 -10.9 12.3 88 -12.6 9.3
19:15 1020 30.12 849 25.07 -11 12.2 88 -12.6 9.3
19:20 1020 30.12 849 25.07 -11 12.3 87 -12.7 9.2
19:25 1020 30.12 849 25.07 -11.1 11.9 87 -12.8 8.9
19:30 1020 30.12 849 25.07 -11.2 11.8 88 -12.9 8.8
19:35 1020 30.12 850 25.1 -11.2 11.8 88 -12.9 8.8
19:40 1020 30.12 850 25.1 -11.2 11.9 88 -12.8 8.9
19:45 1021 30.15 850 25.1 -11.1 12 88 -12.8 9
19:50 1021 30.15 850 25.1 -11.1 12.1 87 -12.7 9.1
19:55 1021 30.15 850 25.1 -11 12.1 87 -12.8 9
20:00 1021 30.15 850 25.1 -11 12.1 87 -12.8 8.9
20:05 1021 30.15 850 25.1 -11 12.2 87 -12.8 8.9
20:10 1021 30.15 850 25.1 -11 12.2 86 -12.9 8.9
20:15 1021 30.15 850 25.1 -11 12.2 85 -13.1 8.4
20:20 1021 30.15 850 25.1 -11.2 11.8 85 -13.2 8.2
20:25 1021 30.15 850 25.1 -11.3 11.6 86 -13.2 8.2
20:30 1021 30.15 850 25.1 -11.5 11.4 86 -13.4 8
20:35 1021 30.15 850 25.1 -11.5 11.3 87 -13.3 8
20:40 1021 30.15 850 25.1 -11.5 11.2 86 -13.5 7.8
20:45 1021 30.15 850 25.1 -11.7 11 86 -13.6 7.5
20:50 1021 30.15 850 25.1 -11.8 10.9 87 -13.5 7.8
20:55 1021 30.15 851 25.13 -11.7 10.9 87 -13.5 7.6
21:00 1021 30.15 851 25.13 -11.7 10.9 87 -13.5 7.7
21:05 1022 30.18 851 25.13 -11.7 10.9 87 -13.5 7.7
21:10 1022 30.18 851 25.13 -11.8 10.8 87 -13.5 7.8
21:15 1022 30.18 851 25.13 -11.8 10.8 88 -13.4 7.9
21:20 1022 30.18 851 25.13 -11.7 10.9 88 -13.3 8.1
21:25 1022 30.18 851 25.13 -11.6 11 88 -13.3 8.1
21:30 1022 30.18 851 25.13 -11.7 11 87 -13.4 8
21:35 1022 30.18 851 25.13 -11.5 11.2 87 -13.2 8.2
21:40 1022 30.18 851 25.13 -11.5 11.3 87 -13.3 8.1
21:45 1022 30.18 851 25.13 -11.5 11.4 87 -13.2 8.3
21:50 1022 30.18 851 25.13 -11.5 11.4 88 -13.1 8.5
21:55 1022 30.18 851 25.13 -11.4 11.4 88 -13 8.6
22:00 1022 30.18 851 25.13 -11.4 11.4 88 -13 8.6
22:05 1022 30.18 851 25.13 -11.4 11.5 88 -13 8.6
22:10 1022 30.18 851 25.13 -11.5 11.4 87 -13.2 8.3
22:15 1022 30.18 851 25.13 -11.6 11.2 87 -13.4 8
22:20 1022 30.18 851 25.13 -11.7 11 86 -13.5 7.7
22:25 1022 30.18 851 25.13 -11.7 11 86 -13.6 7.6
22:30 1022 30.18 851 25.13 -11.6 11.1 86 -13.5 7.6
22:35 1022 30.18 851 25.13 -11.5 11.2 85 -13.6 7.5
22:40 1022 30.18 852 25.16 -11.5 11.3 85 -13.5 7.6
22:45 1022 30.18 852 25.16 -11.4 11.4 84 -13.6 7.5
22:50 1022 30.18 852 25.16 -11.4 11.5 84 -13.6 7.5
22:55 1022 30.18 852 25.16 -11.4 11.5 83 -13.7 7.4
23:00 1023 30.21 852 25.16 -11.4 11.5 84 -13.6 7.4
23:05 1023 30.21 852 25.16 -11.4 11.6 83 -13.7 7.3
23:10 1023 30.21 852 25.16 -11.4 11.5 83 -13.7 7.3
23:15 1023 30.21 852 25.16 -11.4 11.4 83 -13.7 7.3
23:20 1023 30.21 852 25.16 -11.5 11.3 83 -13.9 7.1
23:25 1023 30.21 852 25.16 -11.6 11.2 83 -13.9 7
23:30 1023 30.21 852 25.16 -11.7 10.9 82 -14.2 6.4
23:35 1023 30.21 852 25.16 -11.9 10.6 82 -14.3 6.2
23:40 1023 30.21 852 25.16 -12 10.4 82 -14.5 5.9
23:45 1023 30.21 852 25.16 -12.1 10.2 82 -14.6 5.7
23:50 1023 30.21 852 25.16 -12.3 9.9 83 -14.6 5.6
23:55 1023 30.21 852 25.16 -12.4 9.7 83 -14.8 5.4
24:00 1023 30.21 852 25.16 -12.6 9.4 83 -14.9 5.2